createdAt,value
2019-06-26T00:02:10.748Z,24.86
2019-06-26T00:04:39.366Z,24.81
2019-06-26T00:07:07.866Z,24.76
2019-06-26T00:09:35.254Z,24.70
2019-06-26T00:12:02.949Z,24.60
2019-06-26T00:14:29.925Z,24.50
2019-06-26T00:16:56.891Z,24.46
2019-06-26T00:19:23.903Z,24.44
2019-06-26T00:21:50.895Z,24.42
2019-06-26T00:24:17.826Z,24.41
2019-06-26T00:26:44.841Z,24.35
2019-06-26T00:29:11.834Z,24.30
2019-06-26T00:31:38.863Z,24.24
2019-06-26T00:34:05.867Z,24.18
2019-06-26T00:36:32.821Z,24.11
2019-06-26T00:38:59.835Z,24.08
2019-06-26T00:41:26.870Z,23.99
2019-06-26T00:43:53.878Z,23.95
2019-06-26T00:46:21.067Z,23.90
2019-06-26T00:48:48.071Z,23.88
2019-06-26T00:51:15.036Z,23.86
2019-06-26T00:53:42.060Z,23.82
2019-06-26T00:56:09.050Z,23.81
2019-06-26T00:58:36.027Z,23.78
2019-06-26T01:01:03.032Z,23.74
2019-06-26T01:03:29.998Z,23.70
2019-06-26T01:05:56.976Z,23.67
2019-06-26T01:08:24.096Z,23.59
2019-06-26T01:10:51.170Z,23.59
2019-06-26T01:13:18.131Z,23.59
2019-06-26T01:15:45.140Z,23.56
2019-06-26T01:18:12.096Z,23.55
2019-06-26T01:20:40.927Z,23.50
2019-06-26T01:23:08.916Z,23.49
2019-06-26T01:25:35.917Z,23.49
2019-06-26T01:28:02.864Z,23.49
2019-06-26T01:30:29.826Z,23.50
2019-06-26T01:32:56.775Z,23.48
2019-06-26T01:35:23.816Z,23.44
2019-06-26T01:37:50.791Z,23.39
2019-06-26T01:40:18.436Z,23.38
2019-06-26T01:42:45.455Z,23.37
2019-06-26T01:45:12.617Z,23.34
2019-06-26T01:47:39.599Z,23.29
2019-06-26T01:50:07.990Z,23.25
2019-06-26T01:52:34.947Z,23.19
2019-06-26T01:55:02.082Z,23.14
2019-06-26T01:57:29.283Z,23.13
2019-06-26T01:59:57.802Z,23.10
2019-06-26T02:02:24.863Z,23.07
2019-06-26T02:04:51.839Z,23.04
2019-06-26T02:07:18.807Z,23.03
2019-06-26T02:09:46.034Z,23.03
2019-06-26T02:12:13.029Z,23.02
2019-06-26T02:14:40.008Z,22.98
2019-06-26T02:17:08.078Z,22.93
2019-06-26T02:19:35.037Z,22.89
2019-06-26T02:22:02.020Z,22.88
2019-06-26T02:24:29.072Z,22.83
2019-06-26T02:26:56.102Z,22.80
2019-06-26T02:29:23.059Z,22.77
2019-06-26T02:31:50.056Z,22.68
2019-06-26T02:34:17.026Z,22.58
2019-06-26T02:36:45.952Z,22.52
2019-06-26T02:39:13.021Z,22.50
2019-06-26T02:41:41.140Z,22.47
2019-06-26T02:44:08.097Z,22.45
2019-06-26T02:46:35.075Z,22.42
2019-06-26T02:49:02.062Z,22.37
2019-06-26T02:51:29.086Z,22.32
2019-06-26T02:53:56.087Z,22.28
2019-06-26T02:56:23.123Z,22.22
2019-06-26T02:58:50.300Z,22.18
2019-06-26T03:01:17.235Z,22.12
2019-06-26T03:03:44.222Z,22.05
2019-06-26T03:06:23.291Z,22.03
2019-06-26T03:09:04.301Z,21.96
2019-06-26T03:11:31.288Z,21.91
2019-06-26T03:13:58.292Z,21.85
2019-06-26T03:16:25.276Z,21.78
2019-06-26T03:18:52.380Z,21.70
2019-06-26T03:21:19.385Z,21.66
2019-06-26T03:23:46.341Z,21.61
2019-06-26T03:26:13.314Z,21.58
2019-06-26T03:28:40.345Z,21.55
2019-06-26T03:31:07.401Z,21.51
2019-06-26T03:33:34.357Z,21.46
2019-06-26T03:36:01.332Z,21.43
2019-06-26T03:38:28.329Z,21.40
2019-06-26T03:40:55.276Z,21.42
2019-06-26T03:43:23.350Z,21.40
2019-06-26T03:45:50.335Z,21.38
2019-06-26T03:48:17.317Z,21.36
2019-06-26T03:50:44.283Z,21.33
2019-06-26T03:53:11.289Z,21.31
2019-06-26T03:55:39.128Z,21.30
2019-06-26T03:58:07.293Z,21.27
2019-06-26T04:00:39.234Z,21.27
2019-06-26T04:03:06.301Z,21.25
2019-06-26T04:05:33.791Z,21.28
2019-06-26T04:08:01.177Z,21.24
2019-06-26T04:10:28.296Z,21.22
2019-06-26T04:12:56.505Z,21.20
2019-06-26T04:15:23.512Z,21.17
2019-06-26T04:17:50.463Z,21.17
2019-06-26T04:20:17.766Z,21.13
2019-06-26T04:22:47.587Z,21.16
2019-06-26T04:25:13.771Z,21.25
2019-06-26T04:27:40.833Z,21.48
2019-06-26T04:30:10.062Z,21.62
2019-06-26T04:32:37.032Z,21.72
2019-06-26T04:35:04.128Z,21.83
2019-06-26T04:37:34.740Z,21.85
2019-06-26T04:40:01.693Z,21.90
2019-06-26T04:42:28.690Z,21.94
2019-06-26T04:44:55.685Z,21.84
2019-06-26T04:47:22.604Z,21.63
2019-06-26T04:49:49.590Z,21.45
2019-06-26T04:52:16.554Z,21.36
2019-06-26T04:54:43.542Z,21.29
2019-06-26T04:57:10.533Z,21.24
2019-06-26T04:59:37.505Z,21.25
2019-06-26T05:02:04.482Z,21.24
2019-06-26T05:04:31.473Z,21.24
2019-06-26T05:06:58.496Z,21.24
2019-06-26T05:09:25.521Z,21.22
2019-06-26T05:11:52.525Z,21.26
2019-06-26T05:14:23.908Z,21.30
2019-06-26T05:16:50.885Z,21.33
2019-06-26T05:19:17.899Z,21.35
2019-06-26T05:21:44.905Z,21.29
2019-06-26T05:24:13.673Z,21.47
2019-06-26T05:26:40.654Z,21.35
2019-06-26T05:29:07.689Z,21.29
2019-06-26T05:31:34.704Z,21.31
2019-06-26T05:34:01.698Z,21.34
2019-06-26T05:36:28.645Z,21.29
2019-06-26T05:38:56.473Z,21.29
2019-06-26T05:41:23.477Z,21.27
2019-06-26T05:43:50.493Z,21.24
2019-06-26T05:46:30.474Z,21.26
2019-06-26T05:48:46.325Z,21.35
2019-06-26T05:51:48.335Z,21.31
2019-06-26T05:54:15.356Z,21.37
2019-06-26T05:56:45.337Z,21.41
2019-06-26T05:59:12.438Z,21.51
2019-06-26T06:01:39.539Z,21.62
2019-06-26T06:04:06.549Z,21.58
2019-06-26T06:06:41.771Z,21.67
2019-06-26T06:09:03.564Z,21.65
2019-06-26T06:11:30.967Z,21.73
2019-06-26T06:13:57.956Z,21.85
2019-06-26T06:16:26.459Z,21.87
2019-06-26T06:18:53.460Z,21.96
2019-06-26T06:21:20.465Z,21.94
2019-06-26T06:23:47.704Z,21.97
2019-06-26T06:26:14.763Z,21.99
2019-06-26T06:28:46.521Z,21.89
2019-06-26T06:31:13.472Z,21.82
2019-06-26T06:33:40.498Z,21.89
2019-06-26T06:36:09.764Z,21.99
2019-06-26T06:38:36.348Z,22.00
2019-06-26T06:41:03.359Z,21.89
2019-06-26T06:43:30.310Z,21.76
2019-06-26T06:45:57.301Z,21.80
2019-06-26T06:48:24.305Z,21.82
2019-06-26T06:50:51.254Z,21.79
2019-06-26T06:53:18.324Z,21.78
2019-06-26T06:55:45.373Z,21.82
2019-06-26T06:58:12.372Z,21.87
2019-06-26T07:00:39.447Z,21.87
2019-06-26T07:03:08.404Z,21.88
2019-06-26T07:05:35.381Z,21.84
2019-06-26T07:08:02.590Z,21.86
2019-06-26T07:10:29.693Z,21.98
2019-06-26T07:12:56.685Z,22.09
2019-06-26T07:15:23.875Z,22.20
2019-06-26T07:17:50.894Z,22.30
2019-06-26T07:20:17.935Z,22.27
2019-06-26T07:22:44.885Z,22.39
2019-06-26T07:25:12.997Z,22.42
2019-06-26T07:27:40.236Z,22.49
2019-06-26T07:30:07.902Z,22.46
2019-06-26T07:32:34.910Z,22.35
2019-06-26T07:35:01.928Z,22.41
2019-06-26T07:37:28.892Z,22.37
2019-06-26T07:40:01.317Z,22.32
2019-06-26T07:42:24.814Z,22.32
2019-06-26T07:44:51.823Z,22.56
2019-06-26T07:47:23.419Z,22.82
2019-06-26T07:49:47.717Z,22.88
2019-06-26T07:52:14.655Z,22.88
2019-06-26T07:54:44.398Z,23.06
2019-06-26T07:57:11.651Z,23.01
2019-06-26T07:59:38.664Z,23.12
2019-06-26T08:02:05.742Z,23.08
2019-06-26T08:04:32.728Z,23.18
2019-06-26T08:06:59.921Z,23.18
2019-06-26T08:09:26.909Z,23.13
2019-06-26T08:11:56.020Z,23.17
2019-06-26T08:14:23.009Z,23.22
2019-06-26T08:16:49.963Z,23.30
2019-06-26T08:19:17.059Z,23.40
2019-06-26T08:21:46.613Z,23.40
2019-06-26T08:24:12.968Z,23.38
2019-06-26T08:26:39.968Z,23.41
2019-06-26T08:29:06.966Z,23.55
2019-06-26T08:31:33.974Z,23.57
2019-06-26T08:34:01.491Z,23.66
2019-06-26T08:36:28.832Z,23.73
2019-06-26T08:38:55.942Z,23.65
2019-06-26T08:41:22.945Z,23.74
2019-06-26T08:43:49.932Z,23.77
2019-06-26T08:46:16.930Z,23.80
2019-06-26T08:48:43.913Z,23.90
2019-06-26T08:51:10.888Z,23.99
2019-06-26T08:53:37.961Z,23.93
2019-06-26T08:56:05.123Z,23.99
2019-06-26T08:58:32.089Z,24.01
2019-06-26T09:00:59.129Z,23.98
2019-06-26T09:03:26.085Z,23.86
2019-06-26T09:05:53.151Z,23.97
2019-06-26T09:08:20.271Z,24.14
2019-06-26T09:10:47.489Z,24.13
2019-06-26T09:13:14.435Z,24.17
2019-06-26T09:15:42.530Z,24.49
2019-06-26T09:18:09.540Z,24.56
2019-06-26T09:20:40.024Z,24.65
2019-06-26T09:23:07.675Z,24.57
2019-06-26T09:25:34.721Z,24.58
2019-06-26T09:28:01.731Z,24.69
2019-06-26T09:30:28.921Z,24.58
2019-06-26T09:32:57.720Z,24.78
2019-06-26T09:35:25.796Z,25.01
2019-06-26T09:37:52.809Z,25.18
2019-06-26T09:40:19.785Z,25.19
2019-06-26T09:42:46.760Z,25.30
2019-06-26T09:45:13.967Z,25.17
2019-06-26T09:47:40.942Z,25.18
2019-06-26T09:50:09.654Z,25.32
2019-06-26T09:52:38.981Z,25.44
2019-06-26T09:55:06.458Z,25.40
2019-06-26T09:57:33.555Z,25.27
2019-06-26T10:00:00.636Z,25.35
2019-06-26T10:02:27.662Z,25.59
2019-06-26T10:04:56.491Z,25.47
2019-06-26T10:07:23.511Z,25.58
2019-06-26T10:09:50.723Z,25.83
2019-06-26T10:12:17.920Z,26.00
2019-06-26T10:14:47.891Z,26.36
2019-06-26T10:17:14.239Z,26.36
2019-06-26T10:19:41.239Z,26.39
2019-06-26T10:22:08.218Z,26.61
2019-06-26T10:24:35.513Z,26.73
2019-06-26T10:27:02.540Z,26.85
2019-06-26T10:29:29.648Z,27.02
2019-06-26T10:31:56.662Z,26.99
2019-06-26T10:34:23.644Z,27.14
2019-06-26T10:36:50.653Z,27.31
2019-06-26T10:39:17.685Z,27.23
2019-06-26T10:41:44.705Z,27.57
2019-06-26T10:44:11.794Z,27.63
2019-06-26T10:46:38.767Z,27.69
2019-06-26T10:49:05.861Z,27.78
2019-06-26T10:51:32.849Z,27.83
2019-06-26T10:53:59.793Z,28.01
2019-06-26T10:56:28.803Z,28.13
2019-06-26T10:58:56.073Z,28.14
2019-06-26T11:01:23.072Z,28.08
2019-06-26T11:03:50.092Z,28.00
2019-06-26T11:06:17.101Z,28.07
2019-06-26T11:08:44.092Z,28.18
2019-06-26T11:11:11.075Z,28.32
2019-06-26T11:13:38.059Z,28.53
2019-06-26T11:16:05.067Z,28.77
2019-06-26T11:18:37.814Z,28.85
2019-06-26T11:21:04.835Z,29.00
2019-06-26T11:23:31.836Z,29.20
2019-06-26T11:25:59.954Z,29.43
2019-06-26T11:28:27.015Z,29.61
2019-06-26T11:30:54.043Z,29.79
2019-06-26T11:33:21.133Z,29.87
2019-06-26T11:35:48.120Z,30.09
2019-06-26T11:38:15.144Z,30.09
2019-06-26T11:40:42.128Z,30.71
2019-06-26T11:43:09.204Z,30.66
2019-06-26T11:45:36.191Z,30.63
2019-06-26T11:48:03.373Z,30.89
2019-06-26T11:50:30.488Z,31.06
2019-06-26T11:52:57.562Z,31.18
2019-06-26T11:55:24.638Z,31.46
2019-06-26T11:57:51.668Z,31.65
2019-06-26T12:00:19.468Z,31.76
2019-06-26T12:02:46.463Z,31.89
2019-06-26T12:05:13.871Z,31.81
2019-06-26T12:07:40.942Z,31.83
2019-06-26T12:10:09.105Z,31.64
2019-06-26T12:12:36.223Z,31.85
2019-06-26T12:15:04.187Z,32.14
2019-06-26T12:17:31.177Z,32.68
2019-06-26T12:19:58.121Z,32.62
2019-06-26T12:22:25.150Z,32.60
2019-06-26T12:24:52.414Z,32.69
2019-06-26T12:27:19.376Z,32.69
2019-06-26T12:29:46.382Z,32.66
2019-06-26T12:32:13.362Z,33.18
2019-06-26T12:34:40.330Z,33.28
2019-06-26T12:37:07.343Z,33.41
2019-06-26T12:39:34.327Z,33.24
2019-06-26T12:42:01.377Z,33.51
2019-06-26T12:44:28.443Z,33.62
2019-06-26T12:46:57.271Z,33.63
2019-06-26T12:49:24.335Z,33.65
2019-06-26T12:51:51.377Z,33.54
2019-06-26T12:54:18.481Z,33.61
2019-06-26T12:56:45.451Z,33.84
2019-06-26T12:59:16.329Z,33.51
2019-06-26T13:01:43.429Z,33.18
2019-06-26T13:04:10.942Z,33.03
2019-06-26T13:06:37.919Z,33.30
2019-06-26T13:09:06.499Z,33.56
2019-06-26T13:11:33.453Z,33.78
2019-06-26T13:14:02.932Z,33.76
2019-06-26T13:16:29.373Z,33.30
2019-06-26T13:18:56.388Z,33.25
2019-06-26T13:21:23.433Z,33.46
2019-06-26T13:23:50.376Z,33.47
2019-06-26T13:26:17.431Z,33.46
2019-06-26T13:28:44.473Z,33.26
2019-06-26T13:31:11.472Z,33.48
2019-06-26T13:33:38.561Z,33.70
2019-06-26T13:36:05.540Z,33.72
2019-06-26T13:38:32.568Z,33.53
2019-06-26T13:40:59.557Z,33.49
2019-06-26T13:43:26.515Z,33.57
2019-06-26T13:45:53.537Z,33.83
2019-06-26T13:48:20.652Z,33.87
2019-06-26T13:50:47.660Z,33.85
2019-06-26T13:53:14.775Z,33.61
2019-06-26T13:55:41.817Z,33.63
2019-06-26T13:58:08.799Z,33.44
2019-06-26T14:00:37.974Z,33.23
2019-06-26T14:03:06.455Z,33.31
2019-06-26T14:05:33.519Z,33.30
2019-06-26T14:08:00.490Z,33.24
2019-06-26T14:10:32.471Z,33.24
2019-06-26T14:12:59.497Z,33.28
2019-06-26T14:15:26.614Z,33.05
2019-06-26T14:17:53.519Z,33.08
2019-06-26T14:20:25.548Z,33.35
2019-06-26T14:22:53.590Z,33.50
2019-06-26T14:25:20.999Z,33.39
2019-06-26T14:27:47.958Z,33.23
2019-06-26T14:30:15.506Z,32.87
2019-06-26T14:32:42.530Z,32.92
2019-06-26T14:35:09.925Z,33.05
2019-06-26T14:37:36.906Z,33.25
2019-06-26T14:40:04.339Z,33.13
2019-06-26T14:42:31.475Z,33.34
2019-06-26T14:44:58.619Z,33.47
2019-06-26T14:47:26.020Z,33.60
2019-06-26T14:49:53.041Z,33.75
2019-06-26T14:52:20.073Z,33.62
2019-06-26T14:54:47.357Z,33.42
2019-06-26T14:57:14.725Z,33.45
2019-06-26T14:59:41.816Z,33.29
2019-06-26T15:02:08.765Z,32.97
2019-06-26T15:04:36.157Z,32.87
2019-06-26T15:07:03.279Z,33.04
2019-06-26T15:09:31.856Z,33.26
2019-06-26T15:11:58.809Z,33.09
2019-06-26T15:14:25.825Z,32.84
2019-06-26T15:16:52.794Z,32.86
2019-06-26T15:19:19.810Z,33.02
2019-06-26T15:21:57.819Z,33.35
2019-06-26T15:24:15.695Z,33.14
2019-06-26T15:26:42.704Z,33.00
2019-06-26T15:29:09.756Z,32.70
2019-06-26T15:31:38.345Z,32.51
2019-06-26T15:34:05.385Z,32.77
2019-06-26T15:36:32.372Z,33.02
2019-06-26T15:38:59.449Z,32.85
2019-06-26T15:41:26.456Z,32.75
2019-06-26T15:44:26.648Z,32.69
2019-06-26T15:46:53.762Z,32.64
2019-06-26T15:49:20.792Z,32.72
2019-06-26T15:51:47.769Z,32.60
2019-06-26T15:54:14.760Z,32.72
2019-06-26T15:56:41.853Z,32.60
2019-06-26T15:59:08.835Z,32.54
2019-06-26T16:01:35.825Z,32.52
2019-06-26T16:04:02.817Z,32.46
2019-06-26T16:06:29.805Z,32.24
2019-06-26T16:08:56.804Z,32.08
2019-06-26T16:11:24.008Z,31.96
2019-06-26T16:13:51.031Z,32.01
2019-06-26T16:16:18.011Z,32.16
2019-06-26T16:18:49.843Z,32.14
2019-06-26T16:21:16.795Z,31.80
2019-06-26T16:23:43.764Z,31.56
2019-06-26T16:26:10.809Z,31.48
2019-06-26T16:28:39.347Z,31.48
2019-06-26T16:31:06.349Z,31.40
2019-06-26T16:33:33.330Z,31.39
2019-06-26T16:36:00.326Z,31.19
2019-06-26T16:38:27.335Z,31.13
2019-06-26T16:40:54.282Z,31.09
2019-06-26T16:43:21.258Z,30.79
2019-06-26T16:45:48.275Z,30.74
2019-06-26T16:48:15.324Z,30.81
2019-06-26T16:50:42.282Z,30.61
2019-06-26T16:53:09.266Z,30.45
2019-06-26T16:55:37.947Z,30.26
2019-06-26T16:58:04.966Z,30.29
2019-06-26T17:00:32.083Z,30.16
2019-06-26T17:02:59.186Z,29.89
2019-06-26T17:05:26.189Z,29.64
2019-06-26T17:07:53.151Z,29.64
2019-06-26T17:10:20.395Z,29.42
2019-06-26T17:12:47.651Z,29.42
2019-06-26T17:15:14.637Z,29.40
2019-06-26T17:17:41.669Z,29.26
2019-06-26T17:20:08.963Z,29.26
2019-06-26T17:22:37.040Z,28.99
2019-06-26T17:25:04.302Z,28.99
2019-06-26T17:27:31.277Z,28.94
2019-06-26T17:29:58.293Z,28.99
2019-06-26T17:32:25.527Z,28.90
2019-06-26T17:34:53.055Z,28.74
2019-06-26T17:37:20.032Z,28.70
2019-06-26T17:39:48.829Z,28.55
2019-06-26T17:42:15.821Z,28.34
2019-06-26T17:44:43.625Z,28.27
2019-06-26T17:47:10.602Z,28.32
2019-06-26T17:49:37.583Z,28.26
2019-06-26T17:52:04.566Z,28.26
2019-06-26T17:54:31.522Z,28.16
2019-06-26T17:57:00.290Z,28.05
2019-06-26T17:59:27.298Z,27.90
2019-06-26T18:01:54.336Z,27.90
2019-06-26T18:04:21.370Z,27.71
2019-06-26T18:06:48.442Z,27.61
2019-06-26T18:09:15.463Z,27.45
2019-06-26T18:11:42.508Z,27.34
2019-06-26T18:14:10.691Z,27.09
2019-06-26T18:16:38.273Z,26.98
2019-06-26T18:19:05.411Z,26.82
2019-06-26T18:21:32.504Z,26.72
2019-06-26T18:23:59.616Z,26.56
2019-06-26T18:26:26.581Z,26.41
2019-06-26T18:28:53.585Z,26.35
2019-06-26T18:31:20.558Z,26.25
2019-06-26T18:33:47.621Z,26.16
2019-06-26T18:36:14.632Z,26.05
2019-06-26T18:38:41.607Z,25.97
2019-06-26T18:41:08.598Z,25.85
2019-06-26T18:43:35.575Z,25.78
2019-06-26T18:46:02.571Z,25.67
2019-06-26T18:48:29.553Z,25.59
2019-06-26T18:50:56.546Z,25.55
2019-06-26T18:53:23.539Z,25.48
2019-06-26T18:55:50.685Z,25.40
2019-06-26T18:58:17.676Z,25.32
2019-06-26T19:00:44.700Z,25.29
2019-06-26T19:03:11.784Z,25.19
2019-06-26T19:05:38.786Z,25.10
2019-06-26T19:08:05.790Z,25.04
2019-06-26T19:10:32.800Z,24.97
2019-06-26T19:12:59.925Z,24.92
2019-06-26T19:15:26.969Z,24.83
2019-06-26T19:17:54.102Z,24.71
2019-06-26T19:20:21.179Z,24.67
2019-06-26T19:22:48.307Z,24.58
2019-06-26T19:25:16.048Z,24.52
2019-06-26T19:27:43.044Z,24.45
2019-06-26T19:30:11.606Z,24.39
2019-06-26T19:32:38.582Z,24.31
2019-06-26T19:35:18.297Z,24.24
2019-06-26T19:37:36.140Z,24.19
2019-06-26T19:40:04.032Z,24.10
2019-06-26T19:42:31.066Z,24.05
2019-06-26T19:44:58.172Z,23.99
2019-06-26T19:47:25.163Z,23.91
2019-06-26T19:49:52.150Z,23.84
2019-06-26T19:52:19.274Z,23.79
2019-06-26T19:54:46.259Z,23.72
2019-06-26T19:57:13.353Z,23.66
2019-06-26T19:59:41.004Z,23.58
2019-06-26T20:02:08.029Z,23.50
2019-06-26T20:04:35.199Z,23.42
2019-06-26T20:07:02.291Z,23.37
2019-06-26T20:09:29.315Z,23.31
2019-06-26T20:11:56.299Z,23.25
2019-06-26T20:14:23.450Z,23.19
2019-06-26T20:16:50.476Z,23.12
2019-06-26T20:19:17.460Z,23.06
2019-06-26T20:21:44.858Z,22.99
2019-06-26T20:24:11.847Z,22.93
2019-06-26T20:26:38.883Z,22.89
2019-06-26T20:29:05.936Z,22.83
2019-06-26T20:31:33.118Z,22.77
2019-06-26T20:34:00.487Z,22.71
2019-06-26T20:36:27.472Z,22.66
2019-06-26T20:38:54.646Z,22.59
2019-06-26T20:41:21.724Z,22.53
2019-06-26T20:43:48.783Z,22.48
2019-06-26T20:46:15.774Z,22.44
2019-06-26T20:48:44.663Z,22.39
2019-06-26T20:51:13.293Z,22.34
2019-06-26T20:53:40.334Z,22.28
2019-06-26T20:56:07.323Z,22.22
2019-06-26T20:58:34.329Z,22.15
2019-06-26T21:01:01.367Z,22.11
2019-06-26T21:03:28.499Z,22.04
2019-06-26T21:05:55.498Z,21.97
2019-06-26T21:08:22.559Z,21.92
2019-06-26T21:10:49.755Z,21.86
2019-06-26T21:13:16.736Z,21.80
2019-06-26T21:15:43.723Z,21.77
2019-06-26T21:18:10.732Z,21.71
2019-06-26T21:20:37.799Z,21.63
2019-06-26T21:23:17.877Z,21.59
2019-06-26T21:25:38.291Z,21.52
2019-06-26T21:28:05.295Z,21.49
2019-06-26T21:30:32.319Z,21.45
2019-06-26T21:32:59.307Z,21.39
2019-06-26T21:35:26.468Z,21.34
2019-06-26T21:37:53.494Z,21.28
2019-06-26T21:40:20.532Z,21.23
2019-06-26T21:42:47.540Z,21.19
2019-06-26T21:45:14.803Z,21.16
2019-06-26T21:47:41.821Z,21.11
2019-06-26T21:50:08.948Z,21.05
2019-06-26T21:52:35.933Z,21.01
2019-06-26T21:55:03.335Z,20.96
2019-06-26T21:57:30.486Z,20.90
2019-06-26T21:59:57.519Z,20.87
2019-06-26T22:02:24.532Z,20.83
2019-06-26T22:04:51.527Z,20.75
2019-06-26T22:07:18.711Z,20.71
2019-06-26T22:09:45.684Z,20.65
2019-06-26T22:12:12.710Z,20.59
2019-06-26T22:14:39.725Z,20.54
2019-06-26T22:17:06.743Z,20.47
2019-06-26T22:19:33.868Z,20.43
2019-06-26T22:22:00.872Z,20.40
2019-06-26T22:24:28.026Z,20.34
2019-06-26T22:26:55.049Z,20.28
2019-06-26T22:29:22.056Z,20.26
2019-06-26T22:31:49.062Z,20.17
2019-06-26T22:34:16.049Z,20.12
2019-06-26T22:36:51.403Z,20.08
2019-06-26T22:39:12.155Z,20.01
2019-06-26T22:41:40.891Z,19.97
2019-06-26T22:44:08.966Z,19.87
2019-06-26T22:46:35.960Z,19.79
2019-06-26T22:49:03.023Z,19.72
2019-06-26T22:51:29.987Z,19.61
2019-06-26T22:53:56.959Z,19.56
2019-06-26T22:56:24.379Z,19.55
2019-06-26T22:58:51.395Z,19.41
2019-06-26T23:01:18.557Z,19.36
2019-06-26T23:03:45.545Z,19.30
2019-06-26T23:06:12.649Z,19.22
2019-06-26T23:08:39.853Z,19.15
2019-06-26T23:11:06.871Z,19.10
2019-06-26T23:13:33.972Z,19.05
2019-06-26T23:16:01.437Z,18.98
2019-06-26T23:18:28.496Z,18.91
2019-06-26T23:20:57.178Z,18.83
2019-06-26T23:23:24.184Z,18.76
2019-06-26T23:25:52.281Z,18.74
2019-06-26T23:28:19.312Z,18.68
2019-06-26T23:30:46.288Z,18.64
2019-06-26T23:33:13.268Z,18.59
2019-06-26T23:35:40.273Z,18.54
2019-06-26T23:38:07.278Z,18.48
2019-06-26T23:40:34.282Z,18.45
2019-06-26T23:43:01.501Z,18.40
2019-06-26T23:45:30.308Z,18.33
2019-06-26T23:47:57.310Z,18.29
2019-06-26T23:50:24.303Z,18.22
2019-06-26T23:52:51.298Z,18.17
2019-06-26T23:55:18.274Z,18.11
2019-06-26T23:57:58.402Z,18.06
